YYY weather

Mont Joli Airport
Mont-Joli, Quebec, Canada

Public forecast

Using degrees Celsius for public forecast. Weather courtesy of forecast.io.

Current aviation weather report (METAR) for Mont Joli Airport

Retrieved 2019/10/14 14:00 UTC (10 minutes ago):

CYYY 141400Z 14012KT 15SM FEW240 12/04 A3000 RMK CI2 SLP162

Aviation forecast (TAF) for Mont Joli Airport

Retrieved 2019/10/14 14:00 UTC (10 minutes ago):

TAF CYYY 141340Z 1414/1502 15012KT P6SM FEW240 FM150100 15010KT P6SM BKN050 RMK NXT FCST BY 142000Z